createdAt,value
2018-12-31T00:02:01.254Z,16.37
2018-12-31T00:07:04.921Z,17.10
2018-12-31T00:12:08.608Z,14.20
2018-12-31T00:17:12.275Z,16.60
2018-12-31T00:22:15.956Z,20.03
2018-12-31T00:27:19.651Z,23.17
2018-12-31T00:32:23.357Z,19.10
2018-12-31T00:37:27.342Z,14.30
2018-12-31T00:42:31.037Z,17.83
2018-12-31T00:47:34.708Z,19.50
2018-12-31T00:52:38.427Z,17.43
2018-12-31T00:57:42.168Z,20.27
2018-12-31T01:02:45.855Z,17.90
2018-12-31T01:07:49.543Z,15.93
2018-12-31T01:12:53.649Z,15.90
2018-12-31T01:17:57.589Z,13.77
2018-12-31T01:23:01.261Z,16.80
2018-12-31T01:28:04.949Z,19.70
2018-12-31T01:33:08.957Z,22.50
2018-12-31T01:38:12.937Z,16.93
2018-12-31T01:43:16.958Z,12.97
2018-12-31T01:48:20.628Z,23.87
2018-12-31T01:53:24.305Z,14.43
2018-12-31T01:58:28.546Z,14.60
2018-12-31T02:03:32.212Z,13.83
2018-12-31T02:08:36.194Z,16.87
2018-12-31T02:13:39.855Z,16.47
2018-12-31T02:18:43.531Z,13.97
2018-12-31T02:23:47.216Z,17.53
2018-12-31T02:28:50.907Z,21.10
2018-12-31T02:33:54.659Z,19.33
2018-12-31T02:38:58.340Z,16.93
2018-12-31T02:44:02.038Z,17.63
2018-12-31T02:49:06.015Z,19.07
2018-12-31T02:54:09.958Z,17.83
2018-12-31T02:59:13.625Z,16.37
2018-12-31T03:04:17.305Z,17.43
2018-12-31T03:09:21.024Z,16.33
2018-12-31T03:14:24.696Z,14.53
2018-12-31T03:19:28.928Z,25.13
2018-12-31T03:24:32.729Z,17.47
2018-12-31T03:29:36.421Z,13.67
2018-12-31T03:34:40.100Z,23.27
2018-12-31T03:39:44.029Z,28.47
2018-12-31T03:44:47.696Z,15.33
2018-12-31T03:49:51.650Z,13.20
2018-12-31T03:54:55.314Z,14.23
2018-12-31T03:59:59.000Z,20.83
2018-12-31T04:05:02.649Z,28.27
2018-12-31T04:10:06.481Z,15.63
2018-12-31T04:15:10.699Z,21.80
2018-12-31T04:20:14.611Z,14.33
2018-12-31T04:25:18.870Z,22.13
2018-12-31T04:30:22.600Z,20.53
2018-12-31T04:35:26.256Z,14.07
2018-12-31T04:40:30.194Z,24.70
2018-12-31T04:45:34.103Z,14.50
2018-12-31T04:50:38.209Z,14.77
2018-12-31T04:55:44.481Z,17.93
2018-12-31T05:00:47.596Z,18.40
2018-12-31T05:05:51.287Z,12.83
2018-12-31T05:10:54.986Z,25.60
2018-12-31T05:15:58.695Z,17.40
2018-12-31T05:21:02.588Z,15.90
2018-12-31T05:26:06.466Z,29.20
2018-12-31T05:31:10.226Z,18.30
2018-12-31T05:36:13.905Z,23.93
2018-12-31T05:41:17.859Z,18.37
2018-12-31T05:46:21.764Z,24.93
2018-12-31T05:51:25.448Z,17.00
2018-12-31T05:56:29.588Z,27.50
2018-12-31T06:01:33.599Z,19.77
2018-12-31T06:06:37.269Z,24.70
2018-12-31T06:11:41.308Z,25.20
2018-12-31T06:16:44.972Z,23.97
2018-12-31T06:21:48.927Z,32.13
2018-12-31T06:26:52.653Z,26.03
2018-12-31T06:31:56.432Z,29.73
2018-12-31T06:37:00.111Z,32.03
2018-12-31T06:42:03.804Z,29.30
2018-12-31T06:47:07.469Z,27.00
2018-12-31T06:52:11.157Z,26.50
2018-12-31T06:57:14.835Z,32.10
2018-12-31T07:02:18.830Z,36.30
2018-12-31T07:07:22.496Z,28.87
2018-12-31T07:12:26.159Z,28.73
2018-12-31T07:17:29.844Z,31.80
2018-12-31T07:22:33.526Z,35.93
2018-12-31T07:27:37.205Z,28.07
2018-12-31T07:32:40.901Z,30.43
2018-12-31T07:37:45.161Z,29.00
2018-12-31T07:42:48.857Z,25.40
2018-12-31T07:47:52.563Z,27.67
2018-12-31T07:52:56.266Z,25.37
2018-12-31T07:57:59.942Z,32.87
2018-12-31T08:03:03.646Z,30.57
2018-12-31T08:08:07.619Z,29.23
2018-12-31T08:13:11.289Z,27.03
2018-12-31T08:18:14.963Z,28.97
2018-12-31T08:23:18.729Z,35.77
2018-12-31T08:28:22.783Z,29.77
2018-12-31T08:33:26.771Z,32.83
2018-12-31T08:38:30.715Z,37.67
2018-12-31T08:43:34.426Z,32.30
2018-12-31T08:48:38.118Z,30.13
2018-12-31T08:53:41.806Z,33.30
2018-12-31T08:58:45.666Z,30.30
2018-12-31T09:03:49.484Z,39.00
2018-12-31T09:08:53.183Z,35.60
2018-12-31T09:13:57.154Z,37.23
2018-12-31T09:19:00.972Z,30.00
2018-12-31T09:24:04.921Z,35.87
2018-12-31T09:29:08.591Z,26.23
2018-12-31T09:34:12.324Z,27.70
2018-12-31T09:39:16.332Z,32.50
2018-12-31T09:44:20.519Z,25.63
2018-12-31T09:49:24.233Z,32.23
2018-12-31T09:54:27.926Z,33.60
2018-12-31T09:59:31.682Z,33.20
2018-12-31T10:04:35.365Z,29.13
2018-12-31T10:09:39.040Z,29.73
2018-12-31T10:14:43.114Z,30.23
2018-12-31T10:19:46.875Z,27.13
2018-12-31T10:24:50.588Z,31.60
2018-12-31T10:29:54.378Z,36.90
2018-12-31T10:34:58.168Z,29.33
2018-12-31T10:40:02.147Z,26.63
2018-12-31T10:45:18.271Z,27.20
2018-12-31T10:50:22.126Z,29.27
2018-12-31T10:55:25.855Z,34.27
2018-12-31T11:00:29.557Z,29.43
2018-12-31T11:05:33.266Z,30.67
2018-12-31T11:10:46.303Z,29.53
2018-12-31T11:15:50.054Z,28.93
2018-12-31T11:20:53.764Z,27.87
2018-12-31T11:25:57.481Z,22.87
2018-12-31T11:31:01.202Z,32.53
2018-12-31T11:36:04.926Z,33.20
2018-12-31T11:41:09.206Z,27.43
2018-12-31T11:46:13.215Z,30.20
2018-12-31T11:51:16.897Z,33.30
2018-12-31T11:56:20.900Z,32.53
2018-12-31T12:01:24.960Z,23.43
2018-12-31T12:06:29.011Z,29.20
2018-12-31T12:11:32.810Z,27.63
2018-12-31T12:16:36.925Z,24.80
2018-12-31T12:21:41.061Z,23.60
2018-12-31T12:26:45.055Z,28.53
2018-12-31T12:31:48.779Z,27.10
2018-12-31T12:36:52.524Z,24.33
2018-12-31T12:41:56.201Z,24.47
2018-12-31T12:46:59.946Z,25.90
2018-12-31T12:52:08.909Z,20.73
2018-12-31T12:57:12.635Z,17.30
2018-12-31T13:02:16.323Z,20.07
2018-12-31T13:07:20.021Z,17.40
2018-12-31T13:12:23.697Z,24.07
2018-12-31T13:17:27.415Z,17.20
2018-12-31T13:22:31.220Z,21.00
2018-12-31T13:27:34.930Z,22.77
2018-12-31T13:32:38.617Z,20.43
2018-12-31T13:37:42.279Z,19.97
2018-12-31T13:42:46.251Z,19.50
2018-12-31T13:47:50.181Z,19.37
2018-12-31T13:52:54.276Z,16.20
2018-12-31T13:57:58.234Z,18.83
2018-12-31T14:03:02.051Z,22.90
2018-12-31T14:08:05.812Z,23.50
2018-12-31T14:13:09.869Z,17.17
2018-12-31T14:18:13.619Z,22.17
2018-12-31T14:23:17.473Z,21.90
2018-12-31T14:28:21.186Z,27.53
2018-12-31T14:33:25.327Z,25.93
2018-12-31T14:38:29.013Z,32.30
2018-12-31T14:43:32.756Z,31.20
2018-12-31T14:48:36.471Z,32.43
2018-12-31T14:53:40.172Z,32.20
2018-12-31T14:58:43.840Z,32.70
2018-12-31T15:03:47.545Z,36.80
2018-12-31T15:08:51.560Z,34.23
2018-12-31T15:13:55.696Z,34.00
2018-12-31T15:18:59.813Z,27.07
2018-12-31T15:24:03.753Z,29.80
2018-12-31T15:29:07.441Z,30.70
2018-12-31T15:34:11.414Z,29.03
2018-12-31T15:39:15.436Z,31.03
2018-12-31T15:44:19.148Z,31.47
2018-12-31T15:49:22.843Z,31.87
2018-12-31T15:54:26.574Z,33.83
2018-12-31T15:59:30.707Z,35.03
2018-12-31T16:04:34.404Z,39.53
2018-12-31T16:09:38.562Z,50.00
2018-12-31T16:14:42.343Z,41.83
2018-12-31T16:19:48.716Z,45.33
2018-12-31T16:24:52.501Z,48.03
2018-12-31T16:29:56.188Z,50.57
2018-12-31T16:34:59.931Z,51.53
2018-12-31T16:40:03.778Z,49.67
2018-12-31T16:45:07.880Z,48.70
2018-12-31T16:50:11.708Z,50.23
2018-12-31T16:55:15.496Z,61.30
2018-12-31T17:00:19.160Z,60.67
2018-12-31T17:05:22.842Z,48.40
2018-12-31T17:10:26.536Z,52.20
2018-12-31T17:15:30.256Z,53.60
2018-12-31T17:20:34.141Z,70.63
2018-12-31T17:25:37.979Z,73.70
2018-12-31T17:30:41.747Z,60.03
2018-12-31T17:35:45.485Z,59.83
2018-12-31T17:40:49.824Z,64.40
2018-12-31T17:45:53.518Z,54.70
2018-12-31T17:50:57.274Z,57.50
2018-12-31T17:56:01.336Z,63.47
2018-12-31T18:01:05.023Z,75.00
2018-12-31T18:06:09.172Z,55.17
2018-12-31T18:11:13.716Z,47.87
2018-12-31T18:16:37.068Z,40.83
2018-12-31T18:21:40.971Z,148.03
2018-12-31T18:26:45.126Z,65.87
2018-12-31T18:31:48.828Z,51.43
2018-12-31T18:36:52.523Z,51.63
2018-12-31T18:41:56.625Z,64.37
2018-12-31T18:47:01.768Z,87.50
2018-12-31T18:52:05.453Z,86.87
2018-12-31T18:57:09.209Z,87.00
2018-12-31T19:02:12.974Z,86.10
2018-12-31T19:07:17.036Z,85.00
2018-12-31T19:12:20.713Z,72.30
2018-12-31T19:17:25.339Z,89.20
2018-12-31T19:22:29.028Z,96.53
2018-12-31T19:27:33.200Z,86.40
2018-12-31T19:32:36.967Z,96.90
2018-12-31T19:37:40.709Z,139.33
2018-12-31T19:42:44.415Z,108.07
2018-12-31T19:47:48.102Z,93.17
2018-12-31T19:52:51.864Z,53.67
2018-12-31T19:57:56.179Z,47.90
2018-12-31T20:02:59.979Z,52.03
2018-12-31T20:08:03.699Z,59.40
2018-12-31T20:13:07.728Z,52.97
2018-12-31T20:18:11.502Z,57.20
2018-12-31T20:23:15.713Z,63.77
2018-12-31T20:28:19.534Z,62.90
2018-12-31T20:33:23.660Z,61.80
2018-12-31T20:38:27.389Z,69.03
2018-12-31T20:43:31.672Z,86.93
2018-12-31T20:48:35.667Z,84.40
2018-12-31T20:53:39.431Z,155.33
2018-12-31T20:58:43.219Z,102.60
2018-12-31T21:03:47.438Z,88.07
2018-12-31T21:08:51.189Z,104.57
2018-12-31T21:13:54.872Z,102.80
2018-12-31T21:18:58.590Z,125.90
2018-12-31T21:24:02.305Z,259.33
2018-12-31T21:29:05.972Z,242.13
2018-12-31T21:34:09.678Z,298.20
2018-12-31T21:39:13.776Z,282.60
2018-12-31T21:44:17.602Z,253.43
2018-12-31T21:49:21.738Z,148.83
2018-12-31T21:54:25.451Z,238.87
2018-12-31T21:59:29.145Z,172.70
2018-12-31T22:04:33.126Z,125.37
2018-12-31T22:09:37.157Z,205.77
2018-12-31T22:14:40.940Z,151.27
2018-12-31T22:19:44.733Z,139.13
2018-12-31T22:24:48.650Z,122.80
2018-12-31T22:29:56.054Z,138.10
2018-12-31T22:40:15.710Z,67.00
2018-12-31T22:45:21.538Z,98.80
2018-12-31T22:50:25.280Z,74.03
2018-12-31T22:55:29.280Z,63.67
2018-12-31T23:00:34.251Z,65.20
2018-12-31T23:05:39.828Z,94.00
2018-12-31T23:10:44.967Z,227.20
2018-12-31T23:15:48.872Z,393.13
2018-12-31T23:20:52.624Z,581.87
2018-12-31T23:25:58.042Z,540.20
2018-12-31T23:31:01.872Z,673.20
2018-12-31T23:36:05.837Z,646.73
2018-12-31T23:41:10.113Z,672.30
2018-12-31T23:46:13.927Z,641.30
2018-12-31T23:51:17.656Z,628.57
2018-12-31T23:56:21.453Z,547.87
